sensor_id;sensor_type;location;lat;lon;timestamp;pressure;altitude;pressure_sealevel;temperature;humidity
38786;BME280;24535;45.508;12.252;2023-05-22T00:00:05;101277.13;;;22.89;51.33
38786;BME280;24535;45.508;12.252;2023-05-22T00:02:36;101275.44;;;22.88;51.56
38786;BME280;24535;45.508;12.252;2023-05-22T00:05:12;101274.59;;;22.88;52.13
38786;BME280;24535;45.508;12.252;2023-05-22T00:07:49;101270.41;;;22.85;51.70
38786;BME280;24535;45.508;12.252;2023-05-22T00:10:15;101277.47;;;22.86;51.51
38786;BME280;24535;45.508;12.252;2023-05-22T00:12:48;101267.53;;;22.87;51.40
38786;BME280;24535;45.508;12.252;2023-05-22T00:15:13;101265.69;;;22.87;51.18
38786;BME280;24535;45.508;12.252;2023-05-22T00:17:41;101267.38;;;22.88;51.93
38786;BME280;24535;45.508;12.252;2023-05-22T00:20:08;101266.38;;;22.89;51.23
38786;BME280;24535;45.508;12.252;2023-05-22T00:25:37;101258.31;;;22.89;52.00
38786;BME280;24535;45.508;12.252;2023-05-22T00:28:03;101255.63;;;22.89;52.32
38786;BME280;24535;45.508;12.252;2023-05-22T00:30:28;101250.25;;;22.89;51.28
38786;BME280;24535;45.508;12.252;2023-05-22T00:36:10;101251.63;;;22.93;51.26
38786;BME280;24535;45.508;12.252;2023-05-22T00:38:51;101257.84;;;22.94;50.85
38786;BME280;24535;45.508;12.252;2023-05-22T00:41:16;101248.94;;;22.93;51.10
38786;BME280;24535;45.508;12.252;2023-05-22T00:43:42;101250.78;;;22.93;51.58
38786;BME280;24535;45.508;12.252;2023-05-22T00:46:09;101247.41;;;22.91;51.28
38786;BME280;24535;45.508;12.252;2023-05-22T00:48:36;101251.78;;;22.92;51.91
38786;BME280;24535;45.508;12.252;2023-05-22T00:51:01;101255.28;;;22.92;51.83
38786;BME280;24535;45.508;12.252;2023-05-22T00:53:27;101250.94;;;22.91;51.98
38786;BME280;24535;45.508;12.252;2023-05-22T00:55:53;101248.25;;;22.91;52.15
38786;BME280;24535;45.508;12.252;2023-05-22T00:58:19;101242.19;;;22.89;52.02
38786;BME280;24535;45.508;12.252;2023-05-22T01:00:48;101242.19;;;22.89;51.50
38786;BME280;24535;45.508;12.252;2023-05-22T01:03:14;101241.22;;;22.90;51.75
38786;BME280;24535;45.508;12.252;2023-05-22T01:05:40;101252.78;;;22.91;51.46
38786;BME280;24535;45.508;12.252;2023-05-22T01:08:06;101248.94;;;22.93;51.41
38786;BME280;24535;45.508;12.252;2023-05-22T01:10:32;101244.56;;;22.92;51.97
38786;BME280;24535;45.508;12.252;2023-05-22T01:15:25;101247.25;;;22.92;51.67
38786;BME280;24535;45.508;12.252;2023-05-22T01:20:26;101244.56;;;22.92;51.21
38786;BME280;24535;45.508;12.252;2023-05-22T01:28:21;101237.34;;;22.93;51.56
38786;BME280;24535;45.508;12.252;2023-05-22T01:31:01;101232.13;;;22.91;50.46
38786;BME280;24535;45.508;12.252;2023-05-22T01:33:48;101225.09;;;22.90;50.77
38786;BME280;24535;45.508;12.252;2023-05-22T01:39:02;101237.50;;;22.91;51.29
38786;BME280;24535;45.508;12.252;2023-05-22T01:41:36;101235.84;;;22.90;50.84
38786;BME280;24535;45.508;12.252;2023-05-22T01:44:07;101236.66;;;22.91;50.52
38786;BME280;24535;45.508;12.252;2023-05-22T01:46:35;101235.84;;;22.90;50.89
38786;BME280;24535;45.508;12.252;2023-05-22T01:49:00;101235.13;;;22.88;51.09
38786;BME280;24535;45.508;12.252;2023-05-22T01:54:00;101234.47;;;22.86;50.87
38786;BME280;24535;45.508;12.252;2023-05-22T01:56:47;101233.63;;;22.86;50.37
38786;BME280;24535;45.508;12.252;2023-05-22T01:59:22;101230.13;;;22.85;50.16
38786;BME280;24535;45.508;12.252;2023-05-22T02:01:59;101233.44;;;22.87;50.23
38786;BME280;24535;45.508;12.252;2023-05-22T02:04:27;101234.28;;;22.88;50.58
38786;BME280;24535;45.508;12.252;2023-05-22T02:06:54;101225.38;;;22.87;50.42
38786;BME280;24535;45.508;12.252;2023-05-22T02:09:21;101224.75;;;22.85;50.58
38786;BME280;24535;45.508;12.252;2023-05-22T02:11:49;101233.13;;;22.82;50.51
38786;BME280;24535;45.508;12.252;2023-05-22T02:14:14;101221.56;;;22.82;50.27
38786;BME280;24535;45.508;12.252;2023-05-22T02:16:41;101215.50;;;22.80;50.66
38786;BME280;24535;45.508;12.252;2023-05-22T02:19:10;101220.03;;;22.79;50.73
38786;BME280;24535;45.508;12.252;2023-05-22T02:21:41;101218.19;;;22.80;51.05
38786;BME280;24535;45.508;12.252;2023-05-22T02:24:07;101225.59;;;22.78;50.96
38786;BME280;24535;45.508;12.252;2023-05-22T02:26:42;101217.53;;;22.78;50.00
38786;BME280;24535;45.508;12.252;2023-05-22T02:29:07;101212.81;;;22.80;49.94
38786;BME280;24535;45.508;12.252;2023-05-22T02:31:32;101210.31;;;22.78;49.90
38786;BME280;24535;45.508;12.252;2023-05-22T02:34:04;101211.31;;;22.77;50.30
38786;BME280;24535;45.508;12.252;2023-05-22T02:39:40;101208.78;;;22.76;50.97
38786;BME280;24535;45.508;12.252;2023-05-22T02:42:06;101217.84;;;22.75;51.04
38786;BME280;24535;45.508;12.252;2023-05-22T02:44:31;101210.13;;;22.71;50.49
38786;BME280;24535;45.508;12.252;2023-05-22T02:46:57;101220.88;;;22.71;50.48
38786;BME280;24535;45.508;12.252;2023-05-22T02:49:22;101216.34;;;22.72;50.62
38786;BME280;24535;45.508;12.252;2023-05-22T02:51:47;101214.66;;;22.71;50.43
38786;BME280;24535;45.508;12.252;2023-05-22T02:54:13;101206.63;;;22.71;50.51
38786;BME280;24535;45.508;12.252;2023-05-22T02:56:39;101215.00;;;22.68;51.11
38786;BME280;24535;45.508;12.252;2023-05-22T02:59:04;101205.47;;;22.65;51.30
38786;BME280;24535;45.508;12.252;2023-05-22T03:01:30;101202.28;;;22.62;51.45
38786;BME280;24535;45.508;12.252;2023-05-22T03:03:55;101207.13;;;22.58;51.41
38786;BME280;24535;45.508;12.252;2023-05-22T03:06:21;101201.09;;;22.56;51.96
38786;BME280;24535;45.508;12.252;2023-05-22T03:08:47;101193.22;;;22.55;50.83
38786;BME280;24535;45.508;12.252;2023-05-22T03:11:12;101204.28;;;22.52;51.11
38786;BME280;24535;45.508;12.252;2023-05-22T03:13:38;101206.47;;;22.48;51.29
38786;BME280;24535;45.508;12.252;2023-05-22T03:16:03;101207.66;;;22.45;51.28
38786;BME280;24535;45.508;12.252;2023-05-22T03:18:29;101213.53;;;22.41;51.35
38786;BME280;24535;45.508;12.252;2023-05-22T03:20:54;101215.72;;;22.37;51.32
38786;BME280;24535;45.508;12.252;2023-05-22T03:23:19;101215.03;;;22.35;51.13
38786;BME280;24535;45.508;12.252;2023-05-22T03:25:45;101210.16;;;22.31;51.65
38786;BME280;24535;45.508;12.252;2023-05-22T03:28:11;101220.25;;;22.29;51.26
38786;BME280;24535;45.508;12.252;2023-05-22T03:30:36;101210.69;;;22.26;51.82
38786;BME280;24535;45.508;12.252;2023-05-22T03:33:02;101211.84;;;22.24;51.81
38786;BME280;24535;45.508;12.252;2023-05-22T03:35:27;101214.69;;;22.22;51.90
38786;BME280;24535;45.508;12.252;2023-05-22T03:37:52;101209.50;;;22.20;51.73
38786;BME280;24535;45.508;12.252;2023-05-22T03:40:18;101210.66;;;22.18;51.45
38786;BME280;24535;45.508;12.252;2023-05-22T03:42:43;101212.66;;;22.16;51.82
38786;BME280;24535;45.508;12.252;2023-05-22T03:45:08;101204.97;;;22.13;51.61
38786;BME280;24535;45.508;12.252;2023-05-22T03:47:34;101213.13;;;22.11;51.68
38786;BME280;24535;45.508;12.252;2023-05-22T03:50:02;101209.09;;;22.07;51.94
38786;BME280;24535;45.508;12.252;2023-05-22T03:52:27;101207.63;;;22.05;52.28
38786;BME280;24535;45.508;12.252;2023-05-22T03:54:53;101209.47;;;22.04;51.97
38786;BME280;24535;45.508;12.252;2023-05-22T03:57:25;101209.63;;;22.03;52.60
38786;BME280;24535;45.508;12.252;2023-05-22T03:59:51;101209.78;;;22.01;52.47
38786;BME280;24535;45.508;12.252;2023-05-22T04:02:16;101211.63;;;22.01;52.01
38786;BME280;24535;45.508;12.252;2023-05-22T04:04:42;101209.09;;;21.99;52.47
38786;BME280;24535;45.508;12.252;2023-05-22T04:07:10;101206.59;;;21.97;52.64
38786;BME280;24535;45.508;12.252;2023-05-22T04:09:39;101211.44;;;21.94;52.53
38786;BME280;24535;45.508;12.252;2023-05-22T04:12:05;101206.25;;;21.92;52.15
38786;BME280;24535;45.508;12.252;2023-05-22T04:14:30;101211.78;;;21.91;52.66
38786;BME280;24535;45.508;12.252;2023-05-22T04:16:56;101209.25;;;21.89;52.38
38786;BME280;24535;45.508;12.252;2023-05-22T04:19:22;101208.56;;;21.87;52.35
38786;BME280;24535;45.508;12.252;2023-05-22T04:21:47;101212.28;;;21.86;52.61
38786;BME280;24535;45.508;12.252;2023-05-22T04:24:16;101203.22;;;21.87;52.83
38786;BME280;24535;45.508;12.252;2023-05-22T04:26:42;101215.63;;;21.88;52.10
38786;BME280;24535;45.508;12.252;2023-05-22T04:29:11;101212.13;;;21.88;52.46
38786;BME280;24535;45.508;12.252;2023-05-22T04:31:43;101211.94;;;21.89;52.58
38786;BME280;24535;45.508;12.252;2023-05-22T04:34:14;101218.97;;;21.90;52.17
38786;BME280;24535;45.508;12.252;2023-05-22T04:36:39;101217.97;;;21.91;52.04
38786;BME280;24535;45.508;12.252;2023-05-22T04:39:04;101212.47;;;21.93;52.04
38786;BME280;24535;45.508;12.252;2023-05-22T04:41:30;101215.97;;;21.93;52.40
38786;BME280;24535;45.508;12.252;2023-05-22T04:43:56;101217.66;;;21.94;52.00
38786;BME280;24535;45.508;12.252;2023-05-22T04:49:24;101227.03;;;21.98;52.10
38786;BME280;24535;45.508;12.252;2023-05-22T04:55:00;101230.41;;;22.01;52.44
38786;BME280;24535;45.508;12.252;2023-05-22T04:57:25;101232.09;;;22.02;52.53
38786;BME280;24535;45.508;12.252;2023-05-22T05:02:53;101231.59;;;22.06;52.93
38786;BME280;24535;45.508;12.252;2023-05-22T05:05:18;101227.75;;;22.09;52.60
38786;BME280;24535;45.508;12.252;2023-05-22T05:10:50;101236.00;;;22.15;53.08
38786;BME280;24535;45.508;12.252;2023-05-22T05:13:15;101231.13;;;22.19;53.00
38786;BME280;24535;45.508;12.252;2023-05-22T05:15:40;101230.81;;;22.22;52.81
38786;BME280;24535;45.508;12.252;2023-05-22T05:18:09;101230.47;;;22.25;53.23
38786;BME280;24535;45.508;12.252;2023-05-22T05:20:35;101232.66;;;22.30;53.01
38786;BME280;24535;45.508;12.252;2023-05-22T05:23:00;101230.63;;;22.32;52.83
38786;BME280;24535;45.508;12.252;2023-05-22T05:25:28;101231.13;;;22.35;52.70
38786;BME280;24535;45.508;12.252;2023-05-22T05:27:54;101228.13;;;22.38;52.84
38786;BME280;24535;45.508;12.252;2023-05-22T05:30:20;101237.53;;;22.42;52.49
38786;BME280;24535;45.508;12.252;2023-05-22T05:32:45;101236.38;;;22.45;52.94
38786;BME280;24535;45.508;12.252;2023-05-22T05:35:11;101230.63;;;22.48;52.90
38786;BME280;24535;45.508;12.252;2023-05-22T05:37:36;101232.34;;;22.49;52.92
38786;BME280;24535;45.508;12.252;2023-05-22T05:40:01;101230.31;;;22.51;52.94
38786;BME280;24535;45.508;12.252;2023-05-22T05:42:28;101228.13;;;22.55;52.80
38786;BME280;24535;45.508;12.252;2023-05-22T05:44:54;101226.13;;;22.57;53.17
38786;BME280;24535;45.508;12.252;2023-05-22T05:47:24;101218.72;;;22.59;53.06
38786;BME280;24535;45.508;12.252;2023-05-22T05:49:50;101230.81;;;22.63;53.27
38786;BME280;24535;45.508;12.252;2023-05-22T05:52:15;101232.47;;;22.64;52.96
38786;BME280;24535;45.508;12.252;2023-05-22T05:54:41;101232.13;;;22.67;53.38
38786;BME280;24535;45.508;12.252;2023-05-22T05:57:28;101239.88;;;22.70;52.94
38786;BME280;24535;45.508;12.252;2023-05-22T05:59:59;101240.38;;;22.74;53.36
38786;BME280;24535;45.508;12.252;2023-05-22T06:02:25;101234.16;;;22.73;53.21
38786;BME280;24535;45.508;12.252;2023-05-22T06:04:50;101235.00;;;22.74;53.04
38786;BME280;24535;45.508;12.252;2023-05-22T06:10:27;101234.47;;;22.78;53.02
38786;BME280;24535;45.508;12.252;2023-05-22T06:12:52;101242.22;;;22.81;53.03
38786;BME280;24535;45.508;12.252;2023-05-22T06:15:18;101243.03;;;22.82;52.93
38786;BME280;24535;45.508;12.252;2023-05-22T06:17:43;101232.13;;;22.83;53.01
38786;BME280;24535;45.508;12.252;2023-05-22T06:20:08;101243.19;;;22.88;52.84
38786;BME280;24535;45.508;12.252;2023-05-22T06:22:34;101242.53;;;22.94;52.68
38786;BME280;24535;45.508;12.252;2023-05-22T06:24:59;101239.69;;;22.96;52.44
38786;BME280;24535;45.508;12.252;2023-05-22T06:27:25;101239.34;;;22.99;52.90
38786;BME280;24535;45.508;12.252;2023-05-22T06:29:52;101238.16;;;23.02;52.77
38786;BME280;24535;45.508;12.252;2023-05-22T06:35:30;101242.69;;;23.09;52.59
38786;BME280;24535;45.508;12.252;2023-05-22T06:38:13;101233.09;;;23.15;52.67
38786;BME280;24535;45.508;12.252;2023-05-22T06:40:38;101236.78;;;23.22;52.24
38786;BME280;24535;45.508;12.252;2023-05-22T06:43:04;101240.78;;;23.26;52.58
38786;BME280;24535;45.508;12.252;2023-05-22T06:45:32;101234.38;;;23.27;52.33
38786;BME280;24535;45.508;12.252;2023-05-22T06:47:57;101244.47;;;23.25;52.45
38786;BME280;24535;45.508;12.252;2023-05-22T06:50:23;101242.78;;;23.24;52.32
38786;BME280;24535;45.508;12.252;2023-05-22T06:52:48;101239.47;;;23.22;52.54
38786;BME280;24535;45.508;12.252;2023-05-22T06:55:13;101238.94;;;23.27;52.49
38786;BME280;24535;45.508;12.252;2023-05-22T07:00:35;101240.03;;;23.40;52.38
38786;BME280;24535;45.508;12.252;2023-05-22T07:03:00;101238.34;;;23.48;52.00
38786;BME280;24535;45.508;12.252;2023-05-22T07:05:26;101233.22;;;23.61;52.38
38786;BME280;24535;45.508;12.252;2023-05-22T07:07:51;101236.84;;;23.84;51.88
38786;BME280;24535;45.508;12.252;2023-05-22T07:13:09;101238.72;;;24.07;50.91
38786;BME280;24535;45.508;12.252;2023-05-22T07:18:37;101243.94;;;24.08;50.71
38786;BME280;24535;45.508;12.252;2023-05-22T07:21:10;101241.59;;;24.05;50.84
38786;BME280;24535;45.508;12.252;2023-05-22T07:23:36;101239.63;;;23.99;50.90
38786;BME280;24535;45.508;12.252;2023-05-22T07:26:01;101243.31;;;23.98;51.02
38786;BME280;24535;45.508;12.252;2023-05-22T07:28:36;101254.44;;;23.95;51.09
38786;BME280;24535;45.508;12.252;2023-05-22T07:31:14;101252.09;;;23.92;51.22
38786;BME280;24535;45.508;12.252;2023-05-22T07:33:49;101255.44;;;23.94;51.16
38786;BME280;24535;45.508;12.252;2023-05-22T07:36:14;101249.22;;;23.93;51.14
38786;BME280;24535;45.508;12.252;2023-05-22T07:38:41;101245.69;;;23.93;51.45
38786;BME280;24535;45.508;12.252;2023-05-22T07:41:16;101241.97;;;23.94;51.36
38786;BME280;24535;45.508;12.252;2023-05-22T07:43:44;101245.84;;;24.00;51.32
38786;BME280;24535;45.508;12.252;2023-05-22T07:46:09;101253.84;;;24.08;50.96
38786;BME280;24535;45.508;12.252;2023-05-22T07:48:44;101235.53;;;24.26;51.15
38786;BME280;24535;45.508;12.252;2023-05-22T07:51:09;101240.81;;;24.65;51.14
38786;BME280;24535;45.508;12.252;2023-05-22T07:53:34;101247.22;;;25.17;50.03
38786;BME280;24535;45.508;12.252;2023-05-22T07:56:00;101246.88;;;25.71;49.22
38786;BME280;24535;45.508;12.252;2023-05-22T07:58:25;101250.59;;;26.21;47.99
38786;BME280;24535;45.508;12.252;2023-05-22T08:00:51;101248.50;;;26.66;47.40
38786;BME280;24535;45.508;12.252;2023-05-22T08:03:16;101248.78;;;27.06;46.85
38786;BME280;24535;45.508;12.252;2023-05-22T08:05:42;101246.50;;;27.38;45.91
38786;BME280;24535;45.508;12.252;2023-05-22T08:13:23;101251.53;;;28.02;44.61
38786;BME280;24535;45.508;12.252;2023-05-22T08:18:49;101253.09;;;28.38;44.37
38786;BME280;24535;45.508;12.252;2023-05-22T08:21:15;101255.59;;;28.59;43.47
38786;BME280;24535;45.508;12.252;2023-05-22T08:26:48;101239.91;;;29.07;42.09
38786;BME280;24535;45.508;12.252;2023-05-22T08:29:13;101242.81;;;29.26;42.46
38786;BME280;24535;45.508;12.252;2023-05-22T08:37:06;101241.16;;;29.76;43.11
38786;BME280;24535;45.508;12.252;2023-05-22T08:39:33;101234.06;;;29.75;40.13
38786;BME280;24535;45.508;12.252;2023-05-22T08:41:58;101235.88;;;29.81;41.27
38786;BME280;24535;45.508;12.252;2023-05-22T08:44:30;101233.78;;;29.90;41.30
38786;BME280;24535;45.508;12.252;2023-05-22T08:46:56;101228.06;;;29.98;40.38
38786;BME280;24535;45.508;12.252;2023-05-22T08:52:35;101231.72;;;30.17;39.39
38786;BME280;24535;45.508;12.252;2023-05-22T08:57:37;101233.72;;;30.28;39.72
38786;BME280;24535;45.508;12.252;2023-05-22T09:00:11;101229.34;;;30.27;38.82
38786;BME280;24535;45.508;12.252;2023-05-22T09:02:37;101228.34;;;30.22;39.07
38786;BME280;24535;45.508;12.252;2023-05-22T09:05:12;101229.44;;;30.14;39.14
38786;BME280;24535;45.508;12.252;2023-05-22T09:10:41;101225.56;;;29.97;39.30
38786;BME280;24535;45.508;12.252;2023-05-22T09:15:51;101236.38;;;29.65;39.85
38786;BME280;24535;45.508;12.252;2023-05-22T09:18:19;101238.97;;;29.47;39.25
38786;BME280;24535;45.508;12.252;2023-05-22T09:20:46;101236.09;;;29.28;39.50
38786;BME280;24535;45.508;12.252;2023-05-22T09:23:11;101227.81;;;29.10;39.91
38786;BME280;24535;45.508;12.252;2023-05-22T09:25:41;101237.84;;;28.90;40.71
38786;BME280;24535;45.508;12.252;2023-05-22T09:28:07;101230.56;;;28.77;40.54
38786;BME280;24535;45.508;12.252;2023-05-22T09:36:41;101229.91;;;28.22;41.66
38786;BME280;24535;45.508;12.252;2023-05-22T09:39:07;101231.78;;;28.08;41.65
38786;BME280;24535;45.508;12.252;2023-05-22T09:41:39;101226.31;;;27.95;41.46
38786;BME280;24535;45.508;12.252;2023-05-22T09:44:17;101227.94;;;27.82;42.35
38786;BME280;24535;45.508;12.252;2023-05-22T09:46:45;101228.53;;;27.71;42.28
38786;BME280;24535;45.508;12.252;2023-05-22T09:49:10;101230.16;;;27.59;42.82
38786;BME280;24535;45.508;12.252;2023-05-22T09:51:38;101234.47;;;27.47;42.61
38786;BME280;24535;45.508;12.252;2023-05-22T09:54:03;101229.63;;;27.35;42.93
38786;BME280;24535;45.508;12.252;2023-05-22T09:56:31;101234.38;;;27.27;43.19
38786;BME280;24535;45.508;12.252;2023-05-22T09:59:08;101233.69;;;27.18;43.14
38786;BME280;24535;45.508;12.252;2023-05-22T10:01:34;101226.50;;;27.04;42.60
38786;BME280;24535;45.508;12.252;2023-05-22T10:04:03;101231.69;;;26.99;43.35
38786;BME280;24535;45.508;12.252;2023-05-22T10:06:29;101223.53;;;26.92;43.47
38786;BME280;24535;45.508;12.252;2023-05-22T10:11:51;101221.97;;;26.76;43.38
38786;BME280;24535;45.508;12.252;2023-05-22T10:14:17;101227.31;;;26.70;43.73
38786;BME280;24535;45.508;12.252;2023-05-22T10:16:45;101219.78;;;26.65;44.03
38786;BME280;24535;45.508;12.252;2023-05-22T10:19:20;101222.25;;;26.60;44.35
38786;BME280;24535;45.508;12.252;2023-05-22T10:27:46;101213.66;;;26.50;44.04
38786;BME280;24535;45.508;12.252;2023-05-22T10:33:04;101209.38;;;26.41;44.26
38786;BME280;24535;45.508;12.252;2023-05-22T10:35:37;101213.31;;;26.38;44.41
38786;BME280;24535;45.508;12.252;2023-05-22T10:40:35;101210.56;;;26.31;44.77
38786;BME280;24535;45.508;12.252;2023-05-22T10:43:22;101213.63;;;26.28;44.52
38786;BME280;24535;45.508;12.252;2023-05-22T10:45:48;101213.19;;;26.25;45.18
38786;BME280;24535;45.508;12.252;2023-05-22T10:48:13;101208.00;;;26.23;45.26
38786;BME280;24535;45.508;12.252;2023-05-22T10:50:39;101212.34;;;26.24;45.04
38786;BME280;24535;45.508;12.252;2023-05-22T10:53:17;101208.19;;;26.22;44.59
38786;BME280;24535;45.508;12.252;2023-05-22T10:56:09;101206.91;;;26.18;44.32
38786;BME280;24535;45.508;12.252;2023-05-22T10:58:34;101215.59;;;26.13;44.28
38786;BME280;24535;45.508;12.252;2023-05-22T11:01:07;101204.78;;;26.13;45.41
38786;BME280;24535;45.508;12.252;2023-05-22T11:06:29;101206.47;;;26.14;45.38
38786;BME280;24535;45.508;12.252;2023-05-22T11:08:55;101210.19;;;26.13;44.61
38786;BME280;24535;45.508;12.252;2023-05-22T11:14:05;101209.91;;;26.08;44.55
38786;BME280;24535;45.508;12.252;2023-05-22T11:16:36;101206.75;;;26.04;45.25
38786;BME280;24535;45.508;12.252;2023-05-22T11:19:05;101203.44;;;26.02;44.71
38786;BME280;24535;45.508;12.252;2023-05-22T11:24:33;101203.59;;;26.01;44.56
38786;BME280;24535;45.508;12.252;2023-05-22T11:27:05;101201.56;;;26.03;44.43
38786;BME280;24535;45.508;12.252;2023-05-22T11:29:31;101194.75;;;26.07;45.32
38786;BME280;24535;45.508;12.252;2023-05-22T11:31:57;101191.00;;;26.08;45.12
38786;BME280;24535;45.508;12.252;2023-05-22T11:34:23;101193.72;;;26.08;44.93
38786;BME280;24535;45.508;12.252;2023-05-22T11:36:48;101187.47;;;26.07;44.92
38786;BME280;24535;45.508;12.252;2023-05-22T11:39:21;101185.16;;;26.04;44.75
38786;BME280;24535;45.508;12.252;2023-05-22T11:42:10;101187.41;;;26.01;45.01
38786;BME280;24535;45.508;12.252;2023-05-22T11:44:37;101188.66;;;25.98;45.15
38786;BME280;24535;45.508;12.252;2023-05-22T11:47:48;101189.03;;;25.95;44.65
38786;BME280;24535;45.508;12.252;2023-05-22T11:50:23;101185.88;;;25.92;44.31
38786;BME280;24535;45.508;12.252;2023-05-22T11:52:49;101182.53;;;25.89;45.50
38786;BME280;24535;45.508;12.252;2023-05-22T11:55:17;101178.34;;;25.87;44.98
38786;BME280;24535;45.508;12.252;2023-05-22T11:57:42;101183.13;;;25.85;45.29
38786;BME280;24535;45.508;12.252;2023-05-22T12:00:11;101182.47;;;25.83;45.74
38786;BME280;24535;45.508;12.252;2023-05-22T12:08:17;101176.13;;;25.76;45.78
38786;BME280;24535;45.508;12.252;2023-05-22T12:10:46;101181.06;;;25.72;45.89
38786;BME280;24535;45.508;12.252;2023-05-22T12:16:21;101174.38;;;25.68;46.10
38786;BME280;24535;45.508;12.252;2023-05-22T12:18:46;101166.47;;;25.67;45.79
38786;BME280;24535;45.508;12.252;2023-05-22T12:21:15;101168.34;;;25.66;45.80
38786;BME280;24535;45.508;12.252;2023-05-22T12:23:48;101166.84;;;25.63;46.03
38786;BME280;24535;45.508;12.252;2023-05-22T12:26:14;101162.69;;;25.61;45.99
38786;BME280;24535;45.508;12.252;2023-05-22T12:28:39;101162.03;;;25.59;46.23
38786;BME280;24535;45.508;12.252;2023-05-22T12:31:05;101163.69;;;25.60;45.77
38786;BME280;24535;45.508;12.252;2023-05-22T12:33:30;101164.56;;;25.60;45.83
38786;BME280;24535;45.508;12.252;2023-05-22T12:35:56;101166.41;;;25.60;45.24
38786;BME280;24535;45.508;12.252;2023-05-22T12:38:34;101157.47;;;25.59;45.61
38786;BME280;24535;45.508;12.252;2023-05-22T12:41:01;101170.13;;;25.59;45.77
38786;BME280;24535;45.508;12.252;2023-05-22T12:43:27;101160.56;;;25.56;46.04
38786;BME280;24535;45.508;12.252;2023-05-22T12:45:52;101159.72;;;25.56;45.96
38786;BME280;24535;45.508;12.252;2023-05-22T12:48:18;101162.59;;;25.54;46.02
38786;BME280;24535;45.508;12.252;2023-05-22T12:50:43;101160.94;;;25.53;46.29
38786;BME280;24535;45.508;12.252;2023-05-22T12:53:12;101164.22;;;25.49;45.36
38786;BME280;24535;45.508;12.252;2023-05-22T12:55:38;101160.47;;;25.50;46.22
38786;BME280;24535;45.508;12.252;2023-05-22T12:58:09;101159.44;;;25.51;46.05
38786;BME280;24535;45.508;12.252;2023-05-22T13:00:41;101150.53;;;25.50;46.25
38786;BME280;24535;45.508;12.252;2023-05-22T13:03:11;101158.00;;;25.48;46.18
38786;BME280;24535;45.508;12.252;2023-05-22T13:05:37;101158.00;;;25.48;46.25
38786;BME280;24535;45.508;12.252;2023-05-22T13:08:14;101153.44;;;25.49;46.16
38786;BME280;24535;45.508;12.252;2023-05-22T13:10:49;101156.13;;;25.49;46.32
38786;BME280;24535;45.508;12.252;2023-05-22T13:13:23;101156.28;;;25.47;46.30
38786;BME280;24535;45.508;12.252;2023-05-22T13:15:48;101151.94;;;25.46;46.44
38786;BME280;24535;45.508;12.252;2023-05-22T13:18:14;101163.56;;;25.47;46.63
38786;BME280;24535;45.508;12.252;2023-05-22T13:20:40;101152.13;;;25.45;46.57
38786;BME280;24535;45.508;12.252;2023-05-22T13:23:05;101153.97;;;25.44;46.51
38786;BME280;24535;45.508;12.252;2023-05-22T13:25:31;101149.44;;;25.45;46.44
38786;BME280;24535;45.508;12.252;2023-05-22T13:27:57;101144.66;;;25.47;46.49
38786;BME280;24535;45.508;12.252;2023-05-22T13:30:28;101146.16;;;25.49;46.36
38786;BME280;24535;45.508;12.252;2023-05-22T13:32:54;101139.94;;;25.49;46.13
38786;BME280;24535;45.508;12.252;2023-05-22T13:35:19;101140.94;;;25.48;46.33
38786;BME280;24535;45.508;12.252;2023-05-22T13:37:47;101141.97;;;25.47;46.23
38786;BME280;24535;45.508;12.252;2023-05-22T13:40:13;101132.22;;;25.46;46.12
38786;BME280;24535;45.508;12.252;2023-05-22T13:42:39;101131.38;;;25.45;46.12
38786;BME280;24535;45.508;12.252;2023-05-22T13:45:05;101125.53;;;25.42;46.42
38786;BME280;24535;45.508;12.252;2023-05-22T13:47:31;101128.03;;;25.43;45.98
38786;BME280;24535;45.508;12.252;2023-05-22T13:49:59;101121.78;;;25.43;46.17
38786;BME280;24535;45.508;12.252;2023-05-22T13:52:24;101127.19;;;25.43;46.26
38786;BME280;24535;45.508;12.252;2023-05-22T13:54:50;101128.22;;;25.42;46.12
38786;BME280;24535;45.508;12.252;2023-05-22T13:57:21;101117.59;;;25.40;46.56
38786;BME280;24535;45.508;12.252;2023-05-22T14:00:07;101119.88;;;25.36;46.58
38786;BME280;24535;45.508;12.252;2023-05-22T14:02:43;101119.22;;;25.34;46.48
38786;BME280;24535;45.508;12.252;2023-05-22T14:05:10;101110.50;;;25.32;46.76
38786;BME280;24535;45.508;12.252;2023-05-22T14:07:35;101113.56;;;25.29;46.45
38786;BME280;24535;45.508;12.252;2023-05-22T14:10:00;101113.56;;;25.29;46.47
38786;BME280;24535;45.508;12.252;2023-05-22T14:12:26;101113.34;;;25.31;46.44
38786;BME280;24535;45.508;12.252;2023-05-22T14:14:51;101112.97;;;25.34;46.54
38786;BME280;24535;45.508;12.252;2023-05-22T14:17:16;101104.06;;;25.33;46.58
38786;BME280;24535;45.508;12.252;2023-05-22T14:19:42;101108.63;;;25.33;45.84
38786;BME280;24535;45.508;12.252;2023-05-22T14:22:07;101106.75;;;25.33;46.38
38786;BME280;24535;45.508;12.252;2023-05-22T14:24:33;101099.03;;;25.30;46.75
38786;BME280;24535;45.508;12.252;2023-05-22T14:27:00;101101.75;;;25.30;46.12
38786;BME280;24535;45.508;12.252;2023-05-22T14:29:37;101093.84;;;25.29;46.56
38786;BME280;24535;45.508;12.252;2023-05-22T14:34:54;101090.38;;;25.35;46.36
38786;BME280;24535;45.508;12.252;2023-05-22T14:37:19;101087.69;;;25.35;46.19
38786;BME280;24535;45.508;12.252;2023-05-22T14:39:45;101089.34;;;25.36;46.08
38786;BME280;24535;45.508;12.252;2023-05-22T14:42:11;101092.91;;;25.36;46.05
38786;BME280;24535;45.508;12.252;2023-05-22T14:47:10;101086.38;;;25.31;45.68